sensor_id;sensor_type;location;lat;lon;timestamp;P1;durP1;ratioP1;P2;durP2;ratioP2
26702;SDS011;14316;51.074;3.704;2023-12-28T00:01:20;3.80;;;2.88;;
26702;SDS011;14316;51.074;3.704;2023-12-28T00:03:47;3.03;;;2.70;;
26702;SDS011;14316;51.074;3.704;2023-12-28T00:06:13;6.20;;;3.92;;
26702;SDS011;14316;51.074;3.704;2023-12-28T00:08:39;5.70;;;3.22;;
26702;SDS011;14316;51.074;3.704;2023-12-28T00:11:05;3.38;;;3.08;;
26702;SDS011;14316;51.074;3.704;2023-12-28T00:13:31;6.47;;;3.67;;
26702;SDS011;14316;51.074;3.704;2023-12-28T00:15:57;6.63;;;3.58;;
26702;SDS011;14316;51.074;3.704;2023-12-28T00:18:23;6.93;;;4.07;;
26702;SDS011;14316;51.074;3.704;2023-12-28T00:20:49;6.25;;;3.10;;
26702;SDS011;14316;51.074;3.704;2023-12-28T00:23:15;4.45;;;3.50;;
26702;SDS011;14316;51.074;3.704;2023-12-28T00:25:41;4.30;;;3.90;;
26702;SDS011;14316;51.074;3.704;2023-12-28T00:28:07;5.13;;;3.13;;
26702;SDS011;14316;51.074;3.704;2023-12-28T00:30:33;3.63;;;3.08;;
26702;SDS011;14316;51.074;3.704;2023-12-28T00:32:59;4.28;;;3.80;;
26702;SDS011;14316;51.074;3.704;2023-12-28T00:35:26;4.90;;;3.63;;
26702;SDS011;14316;51.074;3.704;2023-12-28T00:37:51;6.28;;;3.13;;
26702;SDS011;14316;51.074;3.704;2023-12-28T00:40:17;4.68;;;3.05;;
26702;SDS011;14316;51.074;3.704;2023-12-28T00:42:43;4.70;;;3.00;;
26702;SDS011;14316;51.074;3.704;2023-12-28T00:45:09;4.18;;;2.58;;
26702;SDS011;14316;51.074;3.704;2023-12-28T00:47:35;5.10;;;3.22;;
26702;SDS011;14316;51.074;3.704;2023-12-28T00:50:01;3.47;;;2.88;;
26702;SDS011;14316;51.074;3.704;2023-12-28T00:52:27;5.80;;;3.47;;
26702;SDS011;14316;51.074;3.704;2023-12-28T00:54:53;7.25;;;4.75;;
26702;SDS011;14316;51.074;3.704;2023-12-28T00:57:19;6.10;;;2.95;;
26702;SDS011;14316;51.074;3.704;2023-12-28T00:59:45;3.83;;;2.47;;
26702;SDS011;14316;51.074;3.704;2023-12-28T01:02:11;3.65;;;2.83;;
26702;SDS011;14316;51.074;3.704;2023-12-28T01:04:37;4.13;;;2.88;;
26702;SDS011;14316;51.074;3.704;2023-12-28T01:07:02;5.40;;;3.17;;
26702;SDS011;14316;51.074;3.704;2023-12-28T01:09:30;4.95;;;3.75;;
26702;SDS011;14316;51.074;3.704;2023-12-28T01:11:59;4.78;;;2.97;;
26702;SDS011;14316;51.074;3.704;2023-12-28T01:14:25;4.22;;;3.75;;
26702;SDS011;14316;51.074;3.704;2023-12-28T01:16:51;4.85;;;3.13;;
26702;SDS011;14316;51.074;3.704;2023-12-28T01:19:17;4.80;;;3.00;;
26702;SDS011;14316;51.074;3.704;2023-12-28T01:21:43;8.25;;;4.20;;
26702;SDS011;14316;51.074;3.704;2023-12-28T01:24:09;6.40;;;3.20;;
26702;SDS011;14316;51.074;3.704;2023-12-28T01:26:35;4.15;;;3.20;;
26702;SDS011;14316;51.074;3.704;2023-12-28T01:29:01;4.20;;;2.95;;
26702;SDS011;14316;51.074;3.704;2023-12-28T01:31:28;3.58;;;2.47;;
26702;SDS011;14316;51.074;3.704;2023-12-28T01:33:54;3.22;;;2.67;;
26702;SDS011;14316;51.074;3.704;2023-12-28T01:36:20;4.28;;;3.13;;
26702;SDS011;14316;51.074;3.704;2023-12-28T01:38:47;7.78;;;3.33;;
26702;SDS011;14316;51.074;3.704;2023-12-28T01:41:13;4.05;;;3.65;;
26702;SDS011;14316;51.074;3.704;2023-12-28T01:43:41;3.85;;;2.70;;
26702;SDS011;14316;51.074;3.704;2023-12-28T01:46:09;6.57;;;3.45;;
26702;SDS011;14316;51.074;3.704;2023-12-28T01:48:41;9.60;;;3.22;;
26702;SDS011;14316;51.074;3.704;2023-12-28T01:51:09;6.13;;;3.55;;
26702;SDS011;14316;51.074;3.704;2023-12-28T01:53:37;3.20;;;2.40;;
26702;SDS011;14316;51.074;3.704;2023-12-28T01:56:03;6.05;;;3.78;;
26702;SDS011;14316;51.074;3.704;2023-12-28T01:58:30;3.80;;;3.33;;
26702;SDS011;14316;51.074;3.704;2023-12-28T02:00:59;4.68;;;3.17;;
26702;SDS011;14316;51.074;3.704;2023-12-28T02:03:25;6.45;;;4.50;;
26702;SDS011;14316;51.074;3.704;2023-12-28T02:05:52;4.28;;;2.85;;
26702;SDS011;14316;51.074;3.704;2023-12-28T02:08:18;4.63;;;3.22;;
26702;SDS011;14316;51.074;3.704;2023-12-28T02:10:43;5.18;;;3.55;;
26702;SDS011;14316;51.074;3.704;2023-12-28T02:13:09;6.45;;;4.07;;
26702;SDS011;14316;51.074;3.704;2023-12-28T02:15:35;5.53;;;3.33;;
26702;SDS011;14316;51.074;3.704;2023-12-28T02:18:05;5.85;;;3.40;;
26702;SDS011;14316;51.074;3.704;2023-12-28T02:20:44;4.03;;;2.80;;
26702;SDS011;14316;51.074;3.704;2023-12-28T02:23:12;8.27;;;4.15;;
26702;SDS011;14316;51.074;3.704;2023-12-28T02:25:38;7.88;;;3.30;;
26702;SDS011;14316;51.074;3.704;2023-12-28T02:28:04;6.35;;;3.95;;
26702;SDS011;14316;51.074;3.704;2023-12-28T02:30:30;6.10;;;3.10;;
26702;SDS011;14316;51.074;3.704;2023-12-28T02:33:11;6.30;;;3.22;;
26702;SDS011;14316;51.074;3.704;2023-12-28T02:35:45;4.13;;;2.72;;
26702;SDS011;14316;51.074;3.704;2023-12-28T02:38:17;6.10;;;3.22;;
26702;SDS011;14316;51.074;3.704;2023-12-28T02:40:44;3.53;;;2.30;;
26702;SDS011;14316;51.074;3.704;2023-12-28T02:43:11;4.95;;;3.17;;
26702;SDS011;14316;51.074;3.704;2023-12-28T02:45:37;5.43;;;2.90;;
26702;SDS011;14316;51.074;3.704;2023-12-28T02:48:04;5.40;;;2.85;;
26702;SDS011;14316;51.074;3.704;2023-12-28T02:50:31;6.15;;;3.10;;
26702;SDS011;14316;51.074;3.704;2023-12-28T02:52:58;4.78;;;3.05;;
26702;SDS011;14316;51.074;3.704;2023-12-28T02:55:24;3.97;;;2.42;;
26702;SDS011;14316;51.074;3.704;2023-12-28T02:57:51;3.80;;;2.13;;
26702;SDS011;14316;51.074;3.704;2023-12-28T03:00:20;4.70;;;2.88;;
26702;SDS011;14316;51.074;3.704;2023-12-28T03:02:46;5.65;;;3.00;;
26702;SDS011;14316;51.074;3.704;2023-12-28T03:05:12;7.28;;;3.33;;
26702;SDS011;14316;51.074;3.704;2023-12-28T03:07:38;5.68;;;3.42;;
26702;SDS011;14316;51.074;3.704;2023-12-28T03:10:05;8.10;;;3.60;;
26702;SDS011;14316;51.074;3.704;2023-12-28T03:12:32;4.72;;;2.78;;
26702;SDS011;14316;51.074;3.704;2023-12-28T03:14:58;6.35;;;2.80;;
26702;SDS011;14316;51.074;3.704;2023-12-28T03:17:24;8.30;;;2.60;;
26702;SDS011;14316;51.074;3.704;2023-12-28T03:19:50;7.43;;;2.85;;
26702;SDS011;14316;51.074;3.704;2023-12-28T03:22:16;6.05;;;2.88;;
26702;SDS011;14316;51.074;3.704;2023-12-28T03:24:42;5.30;;;2.78;;
26702;SDS011;14316;51.074;3.704;2023-12-28T03:27:08;4.00;;;2.33;;
26702;SDS011;14316;51.074;3.704;2023-12-28T03:29:34;7.75;;;2.80;;
26702;SDS011;14316;51.074;3.704;2023-12-28T03:32:00;4.88;;;2.63;;
26702;SDS011;14316;51.074;3.704;2023-12-28T03:34:26;6.85;;;3.15;;
26702;SDS011;14316;51.074;3.704;2023-12-28T03:36:54;4.97;;;2.53;;
26702;SDS011;14316;51.074;3.704;2023-12-28T03:39:21;5.13;;;2.38;;
26702;SDS011;14316;51.074;3.704;2023-12-28T03:41:47;7.63;;;3.28;;
26702;SDS011;14316;51.074;3.704;2023-12-28T03:44:13;4.15;;;2.20;;
26702;SDS011;14316;51.074;3.704;2023-12-28T03:46:39;6.05;;;2.40;;
26702;SDS011;14316;51.074;3.704;2023-12-28T03:49:05;5.95;;;3.15;;
26702;SDS011;14316;51.074;3.704;2023-12-28T03:51:31;8.70;;;3.05;;
26702;SDS011;14316;51.074;3.704;2023-12-28T03:53:57;8.65;;;3.33;;
26702;SDS011;14316;51.074;3.704;2023-12-28T03:56:26;9.18;;;2.28;;
26702;SDS011;14316;51.074;3.704;2023-12-28T03:58:53;7.05;;;2.75;;
26702;SDS011;14316;51.074;3.704;2023-12-28T04:01:19;10.40;;;2.30;;
26702;SDS011;14316;51.074;3.704;2023-12-28T04:03:46;5.88;;;1.63;;
26702;SDS011;14316;51.074;3.704;2023-12-28T04:06:13;4.68;;;2.38;;
26702;SDS011;14316;51.074;3.704;2023-12-28T04:08:40;5.65;;;2.20;;
26702;SDS011;14316;51.074;3.704;2023-12-28T04:11:06;8.32;;;2.47;;
26702;SDS011;14316;51.074;3.704;2023-12-28T04:13:33;4.20;;;1.80;;
26702;SDS011;14316;51.074;3.704;2023-12-28T04:15:59;7.38;;;2.53;;
26702;SDS011;14316;51.074;3.704;2023-12-28T04:18:25;8.05;;;2.47;;
26702;SDS011;14316;51.074;3.704;2023-12-28T04:20:51;11.95;;;2.70;;
26702;SDS011;14316;51.074;3.704;2023-12-28T04:23:17;7.22;;;1.95;;
26702;SDS011;14316;51.074;3.704;2023-12-28T04:25:43;10.02;;;2.60;;
26702;SDS011;14316;51.074;3.704;2023-12-28T04:28:09;7.97;;;2.55;;
26702;SDS011;14316;51.074;3.704;2023-12-28T04:30:35;5.95;;;1.80;;
26702;SDS011;14316;51.074;3.704;2023-12-28T04:33:01;6.60;;;1.88;;
26702;SDS011;14316;51.074;3.704;2023-12-28T04:35:28;6.05;;;2.45;;
26702;SDS011;14316;51.074;3.704;2023-12-28T04:37:54;6.00;;;1.92;;
26702;SDS011;14316;51.074;3.704;2023-12-28T04:40:20;10.63;;;3.13;;
26702;SDS011;14316;51.074;3.704;2023-12-28T04:42:46;8.75;;;2.80;;
26702;SDS011;14316;51.074;3.704;2023-12-28T04:45:12;6.25;;;2.10;;
26702;SDS011;14316;51.074;3.704;2023-12-28T04:47:38;11.38;;;2.25;;
26702;SDS011;14316;51.074;3.704;2023-12-28T04:50:04;6.10;;;2.25;;
26702;SDS011;14316;51.074;3.704;2023-12-28T04:52:31;8.38;;;2.67;;
26702;SDS011;14316;51.074;3.704;2023-12-28T04:54:57;8.50;;;1.70;;
26702;SDS011;14316;51.074;3.704;2023-12-28T04:57:23;8.98;;;2.33;;
26702;SDS011;14316;51.074;3.704;2023-12-28T04:59:50;8.57;;;2.40;;
26702;SDS011;14316;51.074;3.704;2023-12-28T05:02:17;6.80;;;1.83;;
26702;SDS011;14316;51.074;3.704;2023-12-28T05:04:43;11.65;;;2.85;;
26702;SDS011;14316;51.074;3.704;2023-12-28T05:07:09;4.50;;;2.17;;
26702;SDS011;14316;51.074;3.704;2023-12-28T05:09:35;6.78;;;2.47;;
26702;SDS011;14316;51.074;3.704;2023-12-28T05:12:01;9.63;;;2.42;;
26702;SDS011;14316;51.074;3.704;2023-12-28T05:14:27;13.75;;;3.22;;
26702;SDS011;14316;51.074;3.704;2023-12-28T05:16:53;11.15;;;3.08;;
26702;SDS011;14316;51.074;3.704;2023-12-28T05:19:19;10.07;;;2.47;;
26702;SDS011;14316;51.074;3.704;2023-12-28T05:21:45;5.30;;;2.13;;
26702;SDS011;14316;51.074;3.704;2023-12-28T05:24:12;9.88;;;3.00;;
26702;SDS011;14316;51.074;3.704;2023-12-28T05:26:38;7.22;;;2.55;;
26702;SDS011;14316;51.074;3.704;2023-12-28T05:29:04;8.52;;;2.30;;
26702;SDS011;14316;51.074;3.704;2023-12-28T05:31:30;9.65;;;2.58;;
26702;SDS011;14316;51.074;3.704;2023-12-28T05:33:56;16.88;;;2.75;;
26702;SDS011;14316;51.074;3.704;2023-12-28T05:36:23;7.00;;;2.08;;
26702;SDS011;14316;51.074;3.704;2023-12-28T05:38:50;11.93;;;2.88;;
26702;SDS011;14316;51.074;3.704;2023-12-28T05:41:16;8.27;;;2.08;;
26702;SDS011;14316;51.074;3.704;2023-12-28T05:43:42;7.97;;;2.78;;
26702;SDS011;14316;51.074;3.704;2023-12-28T05:46:08;14.65;;;2.65;;
26702;SDS011;14316;51.074;3.704;2023-12-28T05:48:34;10.32;;;2.15;;
26702;SDS011;14316;51.074;3.704;2023-12-28T05:51:00;8.55;;;2.67;;
26702;SDS011;14316;51.074;3.704;2023-12-28T05:53:26;13.00;;;3.53;;
26702;SDS011;14316;51.074;3.704;2023-12-28T05:55:53;12.20;;;2.80;;
26702;SDS011;14316;51.074;3.704;2023-12-28T05:58:19;10.60;;;2.42;;
26702;SDS011;14316;51.074;3.704;2023-12-28T06:00:45;8.88;;;2.35;;
26702;SDS011;14316;51.074;3.704;2023-12-28T06:03:14;6.90;;;2.03;;
26702;SDS011;14316;51.074;3.704;2023-12-28T06:05:40;11.23;;;2.85;;
26702;SDS011;14316;51.074;3.704;2023-12-28T06:08:06;10.68;;;2.08;;
26702;SDS011;14316;51.074;3.704;2023-12-28T06:10:32;9.30;;;2.72;;
26702;SDS011;14316;51.074;3.704;2023-12-28T06:12:58;13.57;;;2.70;;
26702;SDS011;14316;51.074;3.704;2023-12-28T06:15:24;9.27;;;2.78;;
26702;SDS011;14316;51.074;3.704;2023-12-28T06:17:50;12.57;;;2.95;;
26702;SDS011;14316;51.074;3.704;2023-12-28T06:20:15;11.25;;;2.70;;
26702;SDS011;14316;51.074;3.704;2023-12-28T06:22:41;9.18;;;2.70;;
26702;SDS011;14316;51.074;3.704;2023-12-28T06:25:07;8.30;;;2.58;;
26702;SDS011;14316;51.074;3.704;2023-12-28T06:27:36;8.38;;;2.53;;
26702;SDS011;14316;51.074;3.704;2023-12-28T06:30:02;9.40;;;3.05;;
26702;SDS011;14316;51.074;3.704;2023-12-28T06:32:28;15.02;;;3.65;;
26702;SDS011;14316;51.074;3.704;2023-12-28T06:34:54;12.48;;;3.28;;
26702;SDS011;14316;51.074;3.704;2023-12-28T06:37:20;7.00;;;2.85;;
26702;SDS011;14316;51.074;3.704;2023-12-28T06:39:46;7.15;;;2.35;;
26702;SDS011;14316;51.074;3.704;2023-12-28T06:42:12;10.38;;;2.95;;
26702;SDS011;14316;51.074;3.704;2023-12-28T06:44:37;10.88;;;2.50;;
26702;SDS011;14316;51.074;3.704;2023-12-28T06:47:03;11.63;;;2.83;;
26702;SDS011;14316;51.074;3.704;2023-12-28T06:49:29;6.75;;;2.70;;
26702;SDS011;14316;51.074;3.704;2023-12-28T06:51:55;8.70;;;2.38;;
26702;SDS011;14316;51.074;3.704;2023-12-28T06:54:21;9.13;;;2.60;;
26702;SDS011;14316;51.074;3.704;2023-12-28T06:56:47;8.32;;;2.63;;
26702;SDS011;14316;51.074;3.704;2023-12-28T06:59:13;15.93;;;3.08;;
26702;SDS011;14316;51.074;3.704;2023-12-28T07:01:40;12.38;;;3.05;;
26702;SDS011;14316;51.074;3.704;2023-12-28T07:04:07;11.57;;;3.58;;
26702;SDS011;14316;51.074;3.704;2023-12-28T07:06:33;15.55;;;3.92;;
26702;SDS011;14316;51.074;3.704;2023-12-28T07:08:59;10.20;;;2.42;;
26702;SDS011;14316;51.074;3.704;2023-12-28T07:11:25;15.32;;;2.72;;
26702;SDS011;14316;51.074;3.704;2023-12-28T07:13:53;12.05;;;2.35;;
26702;SDS011;14316;51.074;3.704;2023-12-28T07:16:19;12.07;;;3.45;;
26702;SDS011;14316;51.074;3.704;2023-12-28T07:18:45;11.57;;;3.03;;
26702;SDS011;14316;51.074;3.704;2023-12-28T07:21:11;10.10;;;2.28;;
26702;SDS011;14316;51.074;3.704;2023-12-28T07:23:37;12.35;;;2.53;;
26702;SDS011;14316;51.074;3.704;2023-12-28T07:26:04;8.98;;;2.50;;
26702;SDS011;14316;51.074;3.704;2023-12-28T07:28:30;9.55;;;2.17;;
26702;SDS011;14316;51.074;3.704;2023-12-28T07:30:56;10.50;;;2.58;;
26702;SDS011;14316;51.074;3.704;2023-12-28T07:33:22;11.93;;;3.10;;
26702;SDS011;14316;51.074;3.704;2023-12-28T07:35:48;17.00;;;2.65;;
26702;SDS011;14316;51.074;3.704;2023-12-28T07:38:14;8.15;;;2.70;;
26702;SDS011;14316;51.074;3.704;2023-12-28T07:40:41;12.80;;;2.45;;
26702;SDS011;14316;51.074;3.704;2023-12-28T07:43:06;9.45;;;2.20;;
26702;SDS011;14316;51.074;3.704;2023-12-28T07:45:32;8.20;;;1.92;;
26702;SDS011;14316;51.074;3.704;2023-12-28T07:47:59;7.95;;;2.25;;
26702;SDS011;14316;51.074;3.704;2023-12-28T07:50:25;12.77;;;2.95;;
26702;SDS011;14316;51.074;3.704;2023-12-28T07:52:51;12.52;;;2.90;;
26702;SDS011;14316;51.074;3.704;2023-12-28T07:55:17;8.60;;;3.00;;
26702;SDS011;14316;51.074;3.704;2023-12-28T07:57:44;15.55;;;3.00;;
26702;SDS011;14316;51.074;3.704;2023-12-28T08:00:10;14.38;;;2.58;;
26702;SDS011;14316;51.074;3.704;2023-12-28T08:02:36;10.05;;;2.67;;
26702;SDS011;14316;51.074;3.704;2023-12-28T08:05:03;8.52;;;2.70;;
26702;SDS011;14316;51.074;3.704;2023-12-28T08:07:29;10.65;;;2.85;;
26702;SDS011;14316;51.074;3.704;2023-12-28T08:09:55;8.07;;;2.30;;
26702;SDS011;14316;51.074;3.704;2023-12-28T08:12:21;7.45;;;2.50;;
26702;SDS011;14316;51.074;3.704;2023-12-28T08:14:49;16.52;;;4.63;;
26702;SDS011;14316;51.074;3.704;2023-12-28T08:17:15;7.40;;;2.65;;
26702;SDS011;14316;51.074;3.704;2023-12-28T08:19:41;16.30;;;3.90;;
26702;SDS011;14316;51.074;3.704;2023-12-28T08:22:08;10.23;;;3.03;;
26702;SDS011;14316;51.074;3.704;2023-12-28T08:24:34;8.98;;;2.53;;
26702;SDS011;14316;51.074;3.704;2023-12-28T08:27:01;16.27;;;3.03;;
26702;SDS011;14316;51.074;3.704;2023-12-28T08:29:28;12.65;;;2.67;;
26702;SDS011;14316;51.074;3.704;2023-12-28T08:31:54;14.93;;;2.72;;
26702;SDS011;14316;51.074;3.704;2023-12-28T08:34:20;11.70;;;2.67;;
26702;SDS011;14316;51.074;3.704;2023-12-28T08:36:46;12.90;;;2.50;;
26702;SDS011;14316;51.074;3.704;2023-12-28T08:39:12;10.82;;;2.38;;
26702;SDS011;14316;51.074;3.704;2023-12-28T08:41:38;13.95;;;3.03;;
26702;SDS011;14316;51.074;3.704;2023-12-28T08:44:04;11.98;;;2.60;;
26702;SDS011;14316;51.074;3.704;2023-12-28T08:46:30;15.85;;;3.03;;
26702;SDS011;14316;51.074;3.704;2023-12-28T08:48:56;11.82;;;2.63;;
26702;SDS011;14316;51.074;3.704;2023-12-28T08:51:22;13.88;;;3.15;;
26702;SDS011;14316;51.074;3.704;2023-12-28T08:53:48;9.77;;;1.98;;
26702;SDS011;14316;51.074;3.704;2023-12-28T08:56:17;13.93;;;3.42;;
26702;SDS011;14316;51.074;3.704;2023-12-28T08:58:47;7.90;;;2.33;;
26702;SDS011;14316;51.074;3.704;2023-12-28T09:01:20;13.02;;;3.30;;
26702;SDS011;14316;51.074;3.704;2023-12-28T09:03:47;15.75;;;2.83;;
26702;SDS011;14316;51.074;3.704;2023-12-28T09:06:15;12.15;;;2.92;;
26702;SDS011;14316;51.074;3.704;2023-12-28T09:08:42;11.40;;;3.10;;
26702;SDS011;14316;51.074;3.704;2023-12-28T09:11:11;13.55;;;3.00;;
26702;SDS011;14316;51.074;3.704;2023-12-28T09:13:38;12.20;;;3.50;;
26702;SDS011;14316;51.074;3.704;2023-12-28T09:16:07;15.18;;;2.83;;
26702;SDS011;14316;51.074;3.704;2023-12-28T09:18:35;10.77;;;2.63;;
26702;SDS011;14316;51.074;3.704;2023-12-28T09:21:03;13.20;;;3.45;;
26702;SDS011;14316;51.074;3.704;2023-12-28T09:23:30;15.07;;;2.70;;
26702;SDS011;14316;51.074;3.704;2023-12-28T09:25:57;15.02;;;3.08;;
26702;SDS011;14316;51.074;3.704;2023-12-28T09:28:23;15.30;;;2.63;;
26702;SDS011;14316;51.074;3.704;2023-12-28T09:30:49;10.48;;;3.20;;
26702;SDS011;14316;51.074;3.704;2023-12-28T09:33:15;12.02;;;3.15;;
26702;SDS011;14316;51.074;3.704;2023-12-28T09:35:41;12.77;;;3.58;;
26702;SDS011;14316;51.074;3.704;2023-12-28T09:38:07;14.13;;;3.30;;
26702;SDS011;14316;51.074;3.704;2023-12-28T09:40:35;14.93;;;2.35;;
26702;SDS011;14316;51.074;3.704;2023-12-28T09:43:37;15.32;;;2.65;;
26702;SDS011;14316;51.074;3.704;2023-12-28T09:46:05;20.88;;;3.55;;
26702;SDS011;14316;51.074;3.704;2023-12-28T09:48:36;16.27;;;3.20;;
26702;SDS011;14316;51.074;3.704;2023-12-28T09:51:04;14.60;;;3.65;;
26702;SDS011;14316;51.074;3.704;2023-12-28T09:53:30;13.07;;;3.38;;
26702;SDS011;14316;51.074;3.704;2023-12-28T09:55:56;18.90;;;4.40;;
26702;SDS011;14316;51.074;3.704;2023-12-28T09:58:23;7.72;;;2.72;;
26702;SDS011;14316;51.074;3.704;2023-12-28T10:00:50;8.93;;;2.45;;
26702;SDS011;14316;51.074;3.704;2023-12-28T10:03:16;11.77;;;3.78;;
26702;SDS011;14316;51.074;3.704;2023-12-28T10:05:43;10.50;;;2.83;;
26702;SDS011;14316;51.074;3.704;2023-12-28T10:08:13;18.73;;;3.40;;
26702;SDS011;14316;51.074;3.704;2023-12-28T10:10:40;11.85;;;3.35;;
26702;SDS011;14316;51.074;3.704;2023-12-28T10:13:07;13.20;;;3.22;;
26702;SDS011;14316;51.074;3.704;2023-12-28T10:15:37;11.10;;;2.67;;
26702;SDS011;14316;51.074;3.704;2023-12-28T10:18:06;10.13;;;2.67;;
26702;SDS011;14316;51.074;3.704;2023-12-28T10:20:32;12.43;;;2.72;;
26702;SDS011;14316;51.074;3.704;2023-12-28T10:22:59;12.80;;;2.85;;
26702;SDS011;14316;51.074;3.704;2023-12-28T10:25:26;19.45;;;4.38;;
26702;SDS011;14316;51.074;3.704;2023-12-28T10:27:53;17.92;;;3.67;;
26702;SDS011;14316;51.074;3.704;2023-12-28T10:30:19;15.63;;;3.38;;
26702;SDS011;14316;51.074;3.704;2023-12-28T10:32:46;12.63;;;3.05;;
26702;SDS011;14316;51.074;3.704;2023-12-28T10:35:12;16.33;;;3.25;;
26702;SDS011;14316;51.074;3.704;2023-12-28T10:37:42;13.55;;;3.70;;
26702;SDS011;14316;51.074;3.704;2023-12-28T10:40:11;11.93;;;2.80;;
26702;SDS011;14316;51.074;3.704;2023-12-28T10:45:14;10.20;;;2.70;;
26702;SDS011;14316;51.074;3.704;2023-12-28T10:47:43;18.08;;;3.10;;
26702;SDS011;14316;51.074;3.704;2023-12-28T10:50:12;17.52;;;3.45;;
26702;SDS011;14316;51.074;3.704;2023-12-28T10:52:40;12.32;;;2.35;;
26702;SDS011;14316;51.074;3.704;2023-12-28T11:00:22;14.52;;;4.03;;
26702;SDS011;14316;51.074;3.704;2023-12-28T11:02:53;21.08;;;3.95;;
26702;SDS011;14316;51.074;3.704;2023-12-28T11:07:49;11.63;;;3.28;;
26702;SDS011;14316;51.074;3.704;2023-12-28T11:10:22;13.68;;;2.92;;
26702;SDS011;14316;51.074;3.704;2023-12-28T11:12:53;22.92;;;4.15;;
26702;SDS011;14316;51.074;3.704;2023-12-28T11:15:19;11.38;;;2.97;;
26702;SDS011;14316;51.074;3.704;2023-12-28T11:17:46;10.13;;;2.35;;
26702;SDS011;14316;51.074;3.704;2023-12-28T11:20:11;18.25;;;3.03;;
26702;SDS011;14316;51.074;3.704;2023-12-28T11:22:39;14.00;;;3.30;;
26702;SDS011;14316;51.074;3.704;2023-12-28T11:25:06;11.23;;;2.55;;
26702;SDS011;14316;51.074;3.704;2023-12-28T11:27:40;14.70;;;3.30;;
26702;SDS011;14316;51.074;3.704;2023-12-28T11:30:06;17.35;;;3.70;;
26702;SDS011;14316;51.074;3.704;2023-12-28T11:32:36;9.98;;;2.35;;
26702;SDS011;14316;51.074;3.704;2023-12-28T11:35:02;19.52;;;3.40;;
26702;SDS011;14316;51.074;3.704;2023-12-28T11:37:35;15.15;;;2.55;;
26702;SDS011;14316;51.074;3.704;2023-12-28T11:40:13;11.13;;;2.83;;
26702;SDS011;14316;51.074;3.704;2023-12-28T11:42:52;8.15;;;2.88;;
26702;SDS011;14316;51.074;3.704;2023-12-28T11:45:19;10.55;;;3.10;;
26702;SDS011;14316;51.074;3.704;2023-12-28T11:48:03;12.05;;;3.25;;
26702;SDS011;14316;51.074;3.704;2023-12-28T11:50:29;18.47;;;3.40;;
26702;SDS011;14316;51.074;3.704;2023-12-28T11:52:55;17.92;;;3.30;;
26702;SDS011;14316;51.074;3.704;2023-12-28T11:55:22;19.40;;;3.53;;
26702;SDS011;14316;51.074;3.704;2023-12-28T11:57:50;14.88;;;3.10;;
26702;SDS011;14316;51.074;3.704;2023-12-28T12:00:17;19.30;;;3.58;;
26702;SDS011;14316;51.074;3.704;2023-12-28T12:02:45;16.42;;;3.50;;
26702;SDS011;14316;51.074;3.704;2023-12-28T12:05:11;17.98;;;3.58;;
26702;SDS011;14316;51.074;3.704;2023-12-28T12:07:38;13.43;;;2.85;;
26702;SDS011;14316;51.074;3.704;2023-12-28T12:10:05;13.77;;;3.08;;
26702;SDS011;14316;51.074;3.704;2023-12-28T12:12:31;14.57;;;3.88;;
26702;SDS011;14316;51.074;3.704;2023-12-28T12:14:57;19.60;;;3.58;;
26702;SDS011;14316;51.074;3.704;2023-12-28T12:17:23;12.27;;;2.80;;
26702;SDS011;14316;51.074;3.704;2023-12-28T12:19:50;14.63;;;3.47;;
26702;SDS011;14316;51.074;3.704;2023-12-28T12:22:20;12.27;;;2.78;;
26702;SDS011;14316;51.074;3.704;2023-12-28T12:24:47;16.52;;;3.38;;
26702;SDS011;14316;51.074;3.704;2023-12-28T12:27:16;18.85;;;3.65;;
26702;SDS011;14316;51.074;3.704;2023-12-28T12:29:43;13.65;;;3.45;;
26702;SDS011;14316;51.074;3.704;2023-12-28T12:32:08;12.60;;;3.15;;
26702;SDS011;14316;51.074;3.704;2023-12-28T12:34:35;13.65;;;3.30;;
26702;SDS011;14316;51.074;3.704;2023-12-28T12:37:01;15.73;;;3.58;;
26702;SDS011;14316;51.074;3.704;2023-12-28T12:39:27;14.75;;;3.20;;
26702;SDS011;14316;51.074;3.704;2023-12-28T12:41:53;13.63;;;2.85;;
26702;SDS011;14316;51.074;3.704;2023-12-28T12:44:22;14.38;;;3.10;;
26702;SDS011;14316;51.074;3.704;2023-12-28T12:46:48;8.23;;;2.03;;
26702;SDS011;14316;51.074;3.704;2023-12-28T12:49:21;16.52;;;3.05;;
26702;SDS011;14316;51.074;3.704;2023-12-28T12:51:47;8.43;;;2.15;;
26702;SDS011;14316;51.074;3.704;2023-12-28T12:54:16;15.73;;;3.88;;
26702;SDS011;14316;51.074;3.704;2023-12-28T12:56:46;13.30;;;2.60;;
26702;SDS011;14316;51.074;3.704;2023-12-28T12:59:12;13.95;;;2.53;;
26702;SDS011;14316;51.074;3.704;2023-12-28T13:01:41;14.32;;;3.65;;
26702;SDS011;14316;51.074;3.704;2023-12-28T13:04:08;17.58;;;3.47;;
26702;SDS011;14316;51.074;3.704;2023-12-28T13:06:35;10.02;;;2.65;;
26702;SDS011;14316;51.074;3.704;2023-12-28T13:09:01;14.65;;;2.92;;
26702;SDS011;14316;51.074;3.704;2023-12-28T13:11:28;8.70;;;2.10;;
26702;SDS011;14316;51.074;3.704;2023-12-28T13:13:54;8.95;;;2.60;;
26702;SDS011;14316;51.074;3.704;2023-12-28T13:16:20;17.08;;;3.47;;
26702;SDS011;14316;51.074;3.704;2023-12-28T13:18:45;15.00;;;3.80;;
26702;SDS011;14316;51.074;3.704;2023-12-28T13:21:11;21.67;;;4.40;;
26702;SDS011;14316;51.074;3.704;2023-12-28T13:23:38;9.52;;;2.55;;
26702;SDS011;14316;51.074;3.704;2023-12-28T13:26:03;10.90;;;2.63;;
26702;SDS011;14316;51.074;3.704;2023-12-28T13:28:29;9.40;;;2.47;;
26702;SDS011;14316;51.074;3.704;2023-12-28T13:30:55;11.30;;;2.95;;
26702;SDS011;14316;51.074;3.704;2023-12-28T13:33:22;18.17;;;3.08;;
26702;SDS011;14316;51.074;3.704;2023-12-28T13:35:49;11.95;;;2.63;;
26702;SDS011;14316;51.074;3.704;2023-12-28T13:38:15;13.02;;;3.03;;
26702;SDS011;14316;51.074;3.704;2023-12-28T13:40:41;17.13;;;3.40;;
26702;SDS011;14316;51.074;3.704;2023-12-28T13:43:07;10.82;;;3.40;;
26702;SDS011;14316;51.074;3.704;2023-12-28T13:45:35;17.80;;;3.90;;
26702;SDS011;14316;51.074;3.704;2023-12-28T13:48:01;12.55;;;3.33;;
26702;SDS011;14316;51.074;3.704;2023-12-28T13:50:27;21.60;;;4.38;;
26702;SDS011;14316;51.074;3.704;2023-12-28T13:52:53;13.93;;;2.83;;
26702;SDS011;14316;51.074;3.704;2023-12-28T13:55:19;9.88;;;2.47;;
26702;SDS011;14316;51.074;3.704;2023-12-28T13:57:45;7.65;;;2.05;;
26702;SDS011;14316;51.074;3.704;2023-12-28T14:00:11;15.68;;;4.15;;
26702;SDS011;14316;51.074;3.704;2023-12-28T14:02:39;11.82;;;3.38;;
26702;SDS011;14316;51.074;3.704;2023-12-28T14:05:05;13.95;;;3.42;;
26702;SDS011;14316;51.074;3.704;2023-12-28T14:07:32;20.15;;;4.07;;
26702;SDS011;14316;51.074;3.704;2023-12-28T14:09:58;12.52;;;3.10;;
26702;SDS011;14316;51.074;3.704;2023-12-28T14:12:24;21.20;;;3.67;;
26702;SDS011;14316;51.074;3.704;2023-12-28T14:14:50;13.10;;;2.58;;
26702;SDS011;14316;51.074;3.704;2023-12-28T14:17:16;10.13;;;2.17;;
26702;SDS011;14316;51.074;3.704;2023-12-28T14:19:44;12.65;;;2.67;;
26702;SDS011;14316;51.074;3.704;2023-12-28T14:22:12;11.95;;;3.28;;
26702;SDS011;14316;51.074;3.704;2023-12-28T14:24:38;14.20;;;2.92;;
26702;SDS011;14316;51.074;3.704;2023-12-28T14:27:04;9.65;;;2.33;;
26702;SDS011;14316;51.074;3.704;2023-12-28T14:29:31;16.58;;;3.08;;
26702;SDS011;14316;51.074;3.704;2023-12-28T14:31:57;7.28;;;2.08;;
26702;SDS011;14316;51.074;3.704;2023-12-28T14:34:24;13.80;;;3.45;;
26702;SDS011;14316;51.074;3.704;2023-12-28T14:36:52;18.08;;;3.33;;
26702;SDS011;14316;51.074;3.704;2023-12-28T14:39:18;16.55;;;4.18;;
26702;SDS011;14316;51.074;3.704;2023-12-28T14:41:44;8.43;;;2.05;;
26702;SDS011;14316;51.074;3.704;2023-12-28T14:44:10;10.07;;;2.75;;
26702;SDS011;14316;51.074;3.704;2023-12-28T14:46:37;8.63;;;2.15;;
26702;SDS011;14316;51.074;3.704;2023-12-28T14:49:03;12.50;;;2.80;;